Accueil
METAR-TAF:

METAR-TAF

Aéroports :

Londres Biggin Hill, Angleterre

Aérodrome de Londres Biggin Hill

latitude: 51-19N, longitude: 000-02E, altitude: 183 m

Observation

Le bulletin a été fait il y a 36 minutes, à 11:50 UTC
Vent 14 kt de est
Température 2°C
Humidité 64%
Pression 1021 hPa
Visibilité 10 km ou plus
Nuages fragmentés à une hauteur de 3000 ft

METAR: EGKB 231150Z 08014KT 9999 BKN030 02/M04 Q1021

Heure: 12:26 (12:26 UTC)

Prévision

Le bulletin a été fait il y a 1 heure et 26 minutes, à 11:00 UTC
Prévision valable du 23 à 12 UTC au 23 à 21 UTC
Vent 12 kt de est
Visibilité 10 km ou plus
Nuages épars à une hauteur de 3000 ft
Temporairement
du 23 à 12 UTC au 23 à 17 UTC
Vent 15 kt de est avec des rafales jusqu'à 25 kt

TAF: EGKB 231100Z 2312/2321 09012KT 9999 SCT030 TEMPO 2312/2317 10015G25KT

Observations et prévisions météorologiques de plus de 4000 aéroports (messages METAR et TAF).

Les stations disponibles sont représentées par des disques jaunes et rouges sur la carte.

Passer la souris dessus pour voir le nom de la station.

Cliquer dessus pour voir les observations et prévisions météorologiques.

Pour changer de carte: cliquez sur les boutons verts avec une croix noire pour zoomer, sur le bouton vert avec un tiret pour effectuer un zoom arrière, ou sur les flèches vertes pour les cartes adjacentes.


METAR-TAF: